Time;durP1;ratioP1;P1;durP2;ratioP2;P2;SDS_P1;SDS_P2;PMS_P1;PMS_P2;Temp;Humidity;BMP_temperature;BMP_pressure;BME280_temperature;BME280_humidity;BME280_pressure;Samples;Min_cycle;Max_cycle;Signal;HPM_P1;HPM_P2
2022/05/24 00:01:15;;;;;;;27.30;21.97;;;;;;;13.16;100.00;99971.28;6537235;22;20335;-86
2022/05/24 00:03:47;;;;;;;25.02;22.17;;;;;;;13.10;100.00;99960.09;6538224;22;20008;-88
2022/05/24 00:06:18;;;;;;;26.57;21.83;;;;;;;13.01;100.00;99957.84;6537308;22;20444;-83
2022/05/24 00:08:49;;;;;;;22.63;19.90;;;;;;;12.96;100.00;99949.31;6536171;22;20084;-86
2022/05/24 00:11:22;;;;;;;25.07;20.67;;;;;;;12.88;100.00;99962.66;6536326;22;20000;-85
2022/05/24 00:13:53;;;;;;;26.42;20.48;;;;;;;12.74;100.00;99957.03;6537399;22;20011;-86
2022/05/24 00:16:24;;;;;;;25.87;19.60;;;;;;;12.67;100.00;99950.31;6536838;22;20007;-84
2022/05/24 00:18:56;;;;;;;21.30;19.10;;;;;;;12.64;100.00;99951.28;6535439;22;20005;-85
2022/05/24 00:21:27;;;;;;;23.20;19.60;;;;;;;12.64;100.00;99953.91;6537233;22;20000;-82
2022/05/24 00:23:59;;;;;;;21.80;19.47;;;;;;;12.63;100.00;99959.19;6538984;22;20031;-81
2022/05/24 00:26:31;;;;;;;21.33;19.00;;;;;;;12.57;100.00;99968.06;6539971;22;20008;-86
2022/05/24 00:29:03;;;;;;;25.48;19.13;;;;;;;12.54;100.00;99962.94;6545344;22;20004;-86
2022/05/24 00:31:34;;;;;;;21.50;18.60;;;;;;;12.50;100.00;99958.75;6557797;22;20008;-84
2022/05/24 00:34:06;;;;;;;24.33;18.13;;;;;;;12.40;100.00;99959.06;6556049;22;20018;-86
2022/05/24 00:36:37;;;;;;;21.23;18.47;;;;;;;12.36;100.00;99952.25;6542003;22;20018;-85
2022/05/24 00:39:08;;;;;;;27.20;17.20;;;;;;;12.30;100.00;99949.81;6550609;22;20000;-86
2022/05/24 00:41:55;;;;;;;22.87;16.97;;;;;;;12.21;100.00;99940.50;6554515;22;20504;-85
2022/05/24 00:44:35;;;;;;;22.27;15.48;;;;;;;12.22;100.00;99962.28;6549931;22;20511;-83
2022/05/24 00:47:32;;;;;;;22.00;15.00;;;;;;;12.22;100.00;99957.06;6553192;22;20016;-84
2022/05/24 00:50:15;;;;;;;18.23;14.23;;;;;;;12.13;100.00;99955.59;6546488;22;20042;-83
2022/05/24 00:53:15;;;;;;;17.50;13.32;;;;;;;12.08;100.00;99954.03;6543160;22;20004;-83
2022/05/24 00:55:51;;;;;;;25.73;14.27;;;;;;;12.01;100.00;99958.59;6539603;22;20003;-84
2022/05/24 00:58:35;;;;;;;17.98;14.05;;;;;;;11.94;100.00;99957.09;6537872;22;20027;-79
2022/05/24 01:01:34;;;;;;;20.50;14.20;;;;;;;11.93;100.00;99948.41;6536031;22;20015;-85
2022/05/24 01:04:08;;;;;;;25.63;14.88;;;;;;;11.89;100.00;99954.59;6535663;22;20014;-85
2022/05/24 01:06:40;;;;;;;20.95;14.65;;;;;;;11.82;100.00;99945.25;6535262;22;20389;-86
2022/05/24 01:09:20;;;;;;;21.00;14.17;;;;;;;11.80;100.00;99954.88;6533195;22;20008;-83
2022/05/24 01:11:59;;;;;;;20.40;13.95;;;;;;;11.77;100.00;99949.72;6531703;22;20011;-83
2022/05/24 01:14:31;;;;;;;21.42;14.10;;;;;;;11.73;100.00;99945.53;6531803;22;20100;-83
2022/05/24 01:17:03;;;;;;;21.02;12.98;;;;;;;11.64;100.00;99947.53;6529627;22;20003;-85
2022/05/24 01:19:46;;;;;;;22.75;13.27;;;;;;;11.63;100.00;99951.03;6531004;22;20715;-83
2022/05/24 01:22:36;;;;;;;21.30;12.90;;;;;;;11.64;100.00;99944.91;6531243;22;20012;-83
2022/05/24 01:25:21;;;;;;;18.75;13.27;;;;;;;11.60;100.00;99943.28;6530409;22;20008;-82
2022/05/24 01:27:52;;;;;;;20.13;12.10;;;;;;;11.60;100.00;99947.66;6531655;22;20433;-81
2022/05/24 01:30:24;;;;;;;20.07;11.77;;;;;;;11.59;100.00;99959.88;6530837;22;20008;-82
2022/05/24 01:38:36;;;;;;;17.35;10.00;;;;;;;11.52;100.00;99968.75;6529664;22;20346;-85
2022/05/24 01:41:10;;;;;;;15.32;9.52;;;;;;;11.53;100.00;99961.78;6530107;22;20038;-81
2022/05/24 01:43:43;;;;;;;20.30;10.60;;;;;;;11.49;100.00;99972.34;6529208;22;20035;-81
2022/05/24 01:46:18;;;;;;;17.65;9.55;;;;;;;11.47;100.00;99957.63;6528792;22;20003;-82
2022/05/24 01:48:59;;;;;;;16.85;8.70;;;;;;;11.47;100.00;99960.22;6529674;22;20016;-81
2022/05/24 01:51:38;;;;;;;16.33;8.55;;;;;;;11.43;100.00;99969.03;6530064;22;20004;-82
2022/05/24 01:54:12;;;;;;;13.95;7.32;;;;;;;11.40;100.00;99962.16;6528926;22;20004;-83
2022/05/24 01:56:56;;;;;;;14.48;6.85;;;;;;;11.34;100.00;99962.34;6528594;22;20003;-81
2022/05/24 01:59:28;;;;;;;15.88;7.07;;;;;;;11.35;100.00;99957.97;6529189;22;20787;-81
2022/05/24 02:02:00;;;;;;;15.27;6.78;;;;;;;11.34;100.00;99957.13;6529276;22;20004;-81
2022/05/24 02:04:33;;;;;;;13.07;6.87;;;;;;;11.29;100.00;99948.56;6527831;22;20487;-81
2022/05/24 02:07:08;;;;;;;16.63;6.70;;;;;;;11.26;100.00;99949.50;6528132;22;20007;-81
2022/05/24 02:09:43;;;;;;;12.85;5.88;;;;;;;11.23;100.00;99946.13;6528501;22;20077;-83
2022/05/24 02:12:30;;;;;;;10.50;6.00;;;;;;;11.28;100.00;99958.13;6530120;22;20003;-81
2022/05/24 02:15:07;;;;;;;13.13;5.50;;;;;;;11.27;99.59;99969.50;6528230;22;20003;-80
2022/05/24 02:17:52;;;;;;;13.80;5.78;;;;;;;11.28;99.16;99967.72;6527022;22;20065;-81
2022/05/24 02:20:28;;;;;;;14.00;5.68;;;;;;;11.30;98.80;99965.91;6526924;22;20011;-83
2022/05/24 02:22:59;;;;;;;16.40;4.97;;;;;;;11.32;97.94;99970.22;6530057;22;19999;-83
2022/05/24 02:25:41;;;;;;;17.97;5.80;;;;;;;11.36;97.26;99978.78;6528745;22;20483;-82
2022/05/24 02:28:14;;;;;;;10.32;4.93;;;;;;;11.37;96.96;99974.44;6529569;22;20358;-82
2022/05/24 02:30:54;;;;;;;12.68;4.53;;;;;;;11.37;97.51;99964.00;6529901;22;20008;-83
2022/05/24 02:33:26;;;;;;;12.68;6.35;;;;;;;11.32;96.91;99965.00;6530021;22;20007;-83
2022/05/24 02:35:58;;;;;;;14.27;4.67;;;;;;;11.29;97.45;99964.22;6531300;22;20337;-81
2022/05/24 02:38:29;;;;;;;11.13;4.27;;;;;;;11.30;97.01;99966.78;6531751;22;20004;-83
2022/05/24 02:43:51;;;;;;;10.05;4.30;;;;;;;11.36;96.01;99965.75;6530902;22;20015;-87
2022/05/24 02:46:23;;;;;;;9.20;3.50;;;;;;;11.35;96.20;99966.66;6531704;22;20314;-83
2022/05/24 02:48:56;;;;;;;12.57;4.77;;;;;;;11.34;96.11;99957.13;6530017;22;20015;-82
2022/05/24 02:51:28;;;;;;;13.10;4.53;;;;;;;11.35;96.02;99960.56;6530683;22;20249;-82
2022/05/24 02:54:00;;;;;;;10.02;4.75;;;;;;;11.36;96.00;99978.78;6530002;22;20008;-82
2022/05/24 02:56:32;;;;;;;10.90;4.60;;;;;;;11.38;95.92;99978.75;6530050;22;20011;-84
2022/05/24 02:59:04;;;;;;;10.77;4.50;;;;;;;11.35;95.88;99966.66;6531173;22;20082;-81
2022/05/24 03:01:36;;;;;;;10.02;4.10;;;;;;;11.34;95.63;99958.88;6530622;22;20008;-83
2022/05/24 03:04:07;;;;;;;11.67;4.83;;;;;;;11.26;96.43;99948.66;6529307;22;20040;-81
2022/05/24 03:09:35;;;;;;;10.52;4.72;;;;;;;11.18;96.87;99958.47;6529758;22;20043;-80
2022/05/24 03:14:59;;;;;;;9.57;5.45;;;;;;;11.15;97.55;99961.16;6530115;22;20008;-82
2022/05/24 03:17:31;;;;;;;12.73;4.20;;;;;;;11.12;97.73;99955.13;6529130;22;20319;-78
2022/05/24 03:20:04;;;;;;;11.43;5.35;;;;;;;11.13;98.22;99967.25;6529191;22;20108;-79
2022/05/24 03:22:35;;;;;;;;;;;;;;;11.24;97.57;99968.72;6529787;22;20011;-81
2022/05/24 03:25:07;;;;;;;11.87;4.03;;;;;;;11.18;97.25;99980.19;6529501;22;19915;-80
2022/05/24 03:27:38;;;;;;;10.37;4.57;;;;;;;11.17;97.88;99981.06;6529790;22;20317;-82
2022/05/24 03:30:10;;;;;;;12.03;4.80;;;;;;;11.18;97.70;99980.19;6528312;22;20026;-84
2022/05/24 03:32:42;;;;;;;10.75;5.03;;;;;;;11.18;97.73;99980.19;6530938;22;20027;-82
2022/05/24 03:35:13;;;;;;;12.87;3.80;;;;;;;11.15;97.94;99984.63;6529526;22;20000;-80
2022/05/24 03:37:44;;;;;;;9.53;4.30;;;;;;;11.15;97.33;99975.03;6528887;22;20004;-82
2022/05/24 03:40:16;;;;;;;12.20;5.17;;;;;;;11.18;97.64;99981.94;6529112;22;19996;-80
2022/05/24 03:42:51;;;;;;;14.87;5.53;;;;;;;11.16;97.41;99970.69;6529733;22;20008;-81
2022/05/24 03:45:23;;;;;;;13.13;5.95;;;;;;;11.20;97.60;99964.47;6529541;22;19996;-81
2022/05/24 03:47:55;;;;;;;13.03;5.80;;;;;;;11.18;97.40;99976.72;6530148;22;20019;-81
2022/05/24 03:50:26;;;;;;;12.07;5.60;;;;;;;11.22;97.28;99976.59;6529146;22;20061;-80
2022/05/24 03:52:57;;;;;;;13.97;5.90;;;;;;;11.23;96.76;99980.06;6531171;22;20011;-80
2022/05/24 03:55:29;;;;;;;13.63;5.53;;;;;;;11.21;96.16;99995.75;6530546;22;20075;-84
2022/05/24 03:58:01;;;;;;;16.30;5.53;;;;;;;11.20;96.71;99999.25;6528896;22;20461;-81
2022/05/24 04:00:36;;;;;;;14.48;5.72;;;;;;;11.21;96.81;100000.97;6529738;22;20000;-82
2022/05/24 04:03:08;;;;;;;14.23;4.85;;;;;;;11.19;96.57;100010.59;6528423;22;20445;-80
2022/05/24 04:05:41;;;;;;;12.88;5.80;;;;;;;11.23;96.45;100032.22;6528979;22;20004;-81
2022/05/24 04:08:14;;;;;;;11.65;5.13;;;;;;;11.24;96.18;100033.94;6530494;22;20000;-84
2022/05/24 04:10:45;;;;;;;13.65;5.20;;;;;;;11.18;96.35;100040.19;6529659;22;20077;-82
2022/05/24 04:13:17;;;;;;;11.80;4.67;;;;;;;11.20;96.58;100045.34;6527148;22;20373;-81
2022/05/24 04:15:49;;;;;;;13.57;5.37;;;;;;;11.22;96.59;100046.16;6528798;22;20003;-81
2022/05/24 04:18:20;;;;;;;11.98;4.47;;;;;;;11.18;96.56;100039.34;6530291;22;19999;-82
2022/05/24 04:20:52;;;;;;;13.00;4.83;;;;;;;11.16;96.63;100041.97;6530163;22;20406;-80
2022/05/24 04:23:25;;;;;;;13.05;4.93;;;;;;;11.14;96.71;100017.69;6529047;22;20088;-79
2022/05/24 04:25:56;;;;;;;13.82;3.85;;;;;;;11.12;96.84;100003.81;6530109;22;20012;-83
2022/05/24 04:28:28;;;;;;;11.30;3.70;;;;;;;11.07;96.94;99997.88;6529832;22;20007;-79
2022/05/24 04:31:00;;;;;;;12.73;5.23;;;;;;;11.03;97.18;100009.28;6529265;22;20031;-77
2022/05/24 04:33:31;;;;;;;13.43;5.13;;;;;;;11.02;97.48;100018.88;6529421;22;20280;-79
2022/05/24 04:36:03;;;;;;;14.37;3.77;;;;;;;11.03;97.63;100038.84;6529830;22;20004;-78
2022/05/24 04:38:34;;;;;;;12.10;4.17;;;;;;;11.05;97.54;100047.47;6528952;22;20004;-84
2022/05/24 04:43:56;;;;;;;13.90;4.85;;;;;;;11.09;96.94;100049.13;6531314;22;20011;-84
2022/05/24 04:47:06;;;;;;;13.33;4.40;;;;;;;11.09;97.23;100037.81;6533689;22;20386;-83
2022/05/24 04:49:23;;;;;;;11.35;3.97;;;;;;;11.05;97.05;100044.88;6531372;22;20108;-81
2022/05/24 04:51:55;;;;;;;13.52;4.28;;;;;;;11.06;97.23;100050.94;6531587;22;20004;-80
2022/05/24 04:54:26;;;;;;;14.07;4.00;;;;;;;11.09;97.55;100056.06;6530408;22;20404;-82
2022/05/24 04:56:57;;;;;;;14.27;4.30;;;;;;;11.11;96.81;100059.50;6532488;22;20699;-80
2022/05/24 04:59:29;;;;;;;11.27;3.77;;;;;;;11.10;96.67;100065.63;6531065;22;20003;-80
2022/05/24 05:02:00;;;;;;;11.83;4.03;;;;;;;11.11;96.51;100078.63;6530492;22;20011;-82
2022/05/24 05:04:33;;;;;;;8.90;3.30;;;;;;;11.16;96.08;100101.97;6531071;22;20008;-79
2022/05/24 05:07:05;;;;;;;14.77;4.32;;;;;;;11.16;95.97;100088.94;6530140;22;20057;-83
2022/05/24 05:09:38;;;;;;;11.32;4.15;;;;;;;11.18;95.97;100097.56;6530450;22;20007;-81
2022/05/24 05:12:10;;;;;;;;;;;;;;;11.26;95.56;100100.81;6534220;22;20034;-83
2022/05/24 05:14:41;;;;;;;10.10;4.13;;;;;;;11.16;95.72;100109.81;6534152;22;19914;-82
2022/05/24 05:17:13;;;;;;;14.20;3.80;;;;;;;11.16;95.58;100112.41;6535860;22;20499;-81
2022/05/24 05:19:45;;;;;;;13.23;3.57;;;;;;;11.18;95.27;100121.03;6534097;22;20011;-82
2022/05/24 05:22:18;;;;;;;;;;;;;;;11.26;95.04;100100.81;6538230;22;20003;-81
2022/05/24 05:24:51;;;;;;;17.02;3.80;;;;;;;11.19;94.61;100101.03;6536716;22;19946;-83
2022/05/24 05:27:22;;;;;;;13.05;4.15;;;;;;;11.22;95.03;100101.81;6539150;22;20409;-84
2022/05/24 05:32:45;;;;;;;11.45;4.10;;;;;;;11.28;94.83;100106.00;6536657;22;20015;-83
2022/05/24 05:35:18;;;;;;;8.25;3.63;;;;;;;11.25;93.93;100096.53;6545082;22;20004;-79
2022/05/24 05:37:49;;;;;;;14.45;4.03;;;;;;;11.28;94.05;100096.41;6542146;22;20058;-81
2022/05/24 05:40:21;;;;;;;9.73;3.03;;;;;;;11.32;93.83;100102.44;6537782;22;20027;-82
2022/05/24 05:42:52;;;;;;;11.43;4.33;;;;;;;11.30;92.90;100084.22;6532722;22;20095;-81
2022/05/24 05:45:24;;;;;;;10.43;3.23;;;;;;;11.33;92.97;100096.28;6531743;22;20041;-82
2022/05/24 05:47:55;;;;;;;9.40;2.90;;;;;;;11.30;93.29;100102.47;6532793;22;20012;-84
2022/05/24 05:50:26;;;;;;;9.43;3.87;;;;;;;11.20;92.97;100108.81;6532788;22;20242;-80
2022/05/24 05:52:58;;;;;;;9.03;3.10;;;;;;;11.12;93.54;100114.25;6535322;22;20068;-84
2022/05/24 05:55:31;;;;;;;8.67;3.97;;;;;;;11.08;93.36;100130.88;6532543;22;20075;-83
2022/05/24 05:58:02;;;;;;;8.82;4.03;;;;;;;11.04;93.55;100141.41;6530196;22;20014;-83
2022/05/24 06:00:35;;;;;;;11.17;3.63;;;;;;;11.03;93.38;100140.56;6529431;22;20000;-84
2022/05/24 06:03:07;;;;;;;9.30;3.83;;;;;;;11.04;94.17;100146.63;6530904;22;20422;-81
2022/05/24 06:05:38;;;;;;;17.38;3.90;;;;;;;11.10;94.24;100146.47;6529763;22;20027;-82
2022/05/24 06:08:10;;;;;;;10.00;3.30;;;;;;;11.16;92.88;100154.16;6532296;22;20700;-84
2022/05/24 06:10:42;;;;;;;8.10;3.08;;;;;;;11.38;93.12;100151.84;6531685;22;20036;-82
2022/05/24 06:13:13;;;;;;;11.47;3.07;;;;;;;11.52;92.06;100151.47;6532457;22;20031;-81
2022/05/24 06:15:48;;;;;;;11.47;3.33;;;;;;;11.65;90.98;100150.22;6532262;22;20050;-83
2022/05/24 06:18:19;;;;;;;7.20;3.42;;;;;;;11.70;89.62;100165.78;6533498;22;20012;-84
2022/05/24 06:20:51;;;;;;;11.67;3.83;;;;;;;11.82;88.32;100164.59;6533949;22;20061;-83
2022/05/24 06:23:22;;;;;;;9.97;2.80;;;;;;;11.86;88.93;100161.88;6535850;22;20103;-81
2022/05/24 06:25:53;;;;;;;8.17;2.97;;;;;;;11.98;87.69;100160.69;6533808;22;20008;-83
2022/05/24 06:28:26;;;;;;;10.63;3.47;;;;;;;12.12;87.33;100154.19;6541294;22;20333;-81
2022/05/24 06:30:57;;;;;;;12.50;4.20;;;;;;;12.18;86.38;100159.25;6532175;22;20012;-82
2022/05/24 06:33:29;;;;;;;11.23;2.73;;;;;;;12.22;85.49;100153.03;6533145;22;20035;-84
2022/05/24 06:36:01;;;;;;;9.35;2.47;;;;;;;12.38;85.35;100158.63;6532072;22;20038;-83
2022/05/24 06:38:32;;;;;;;6.67;2.27;;;;;;;12.45;85.74;100154.94;6532964;22;20007;-82
2022/05/24 06:41:04;;;;;;;9.57;3.17;;;;;;;12.35;84.43;100161.38;6531252;22;20007;-83
2022/05/24 06:43:36;;;;;;;8.50;2.65;;;;;;;12.25;84.29;100167.75;6531800;22;20418;-79
2022/05/24 06:46:08;;;;;;;11.73;2.93;;;;;;;12.36;84.63;100168.28;6531444;22;20022;-81
2022/05/24 06:48:42;;;;;;;10.37;3.17;;;;;;;12.40;83.07;100183.00;6530697;22;20015;-83
2022/05/24 06:51:16;;;;;;;8.75;2.53;;;;;;;12.59;82.53;100199.81;6533317;22;20452;-81
2022/05/24 06:53:49;;;;;;;6.30;2.15;;;;;;;12.75;80.74;100200.22;6535841;22;20007;-83
2022/05/24 06:56:21;;;;;;;8.82;2.47;;;;;;;12.86;80.04;100194.63;6535964;22;20010;-82
2022/05/24 07:02:24;;;;;;;10.27;2.50;;;;;;;12.92;78.63;100188.34;6535340;22;20079;-82
2022/05/24 07:04:38;;;;;;;7.15;2.72;;;;;;;13.00;77.10;100222.13;6533715;22;20087;-82
2022/05/24 07:07:09;;;;;;;7.88;2.50;;;;;;;12.86;78.62;100206.84;6533569;22;20004;-83
2022/05/24 07:09:41;;;;;;;8.33;2.33;;;;;;;13.02;78.44;100202.00;6535887;22;20030;-84
2022/05/24 07:12:12;;;;;;;9.63;2.90;;;;;;;13.25;77.80;100223.03;6533408;22;20011;-85
2022/05/24 07:14:43;;;;;;;7.17;2.43;;;;;;;13.42;76.52;100219.88;6533845;22;20011;-83
2022/05/24 07:17:17;;;;;;;12.03;2.47;;;;;;;13.46;75.87;100218.03;6532409;22;19996;-79
2022/05/24 07:19:49;;;;;;;5.25;1.92;;;;;;;13.50;76.32;100210.00;6532500;22;20065;-84
2022/05/24 07:22:21;;;;;;;7.53;2.20;;;;;;;13.54;75.17;100217.75;6532906;22;20489;-84
2022/05/24 07:24:52;;;;;;;8.37;2.60;;;;;;;13.62;74.43;100223.56;6533154;22;20024;-81
2022/05/24 07:27:27;;;;;;;7.77;2.80;;;;;;;13.69;75.54;100219.84;6538181;22;19987;-84
2022/05/24 07:29:58;;;;;;;8.30;2.70;;;;;;;14.14;73.45;100221.75;6534334;22;20044;-82
2022/05/24 07:32:31;;;;;;;9.40;2.50;;;;;;;14.06;71.12;100218.56;6534680;22;20029;-85
2022/05/24 07:35:05;;;;;;;7.95;1.95;;;;;;;13.82;72.20;100233.38;6533297;22;20007;-82
2022/05/24 07:37:37;;;;;;;5.50;1.85;;;;;;;13.79;73.17;100238.72;6535590;22;20042;-85
2022/05/24 07:45:54;;;;;;;9.10;1.90;;;;;;;14.15;71.47;100246.19;6538167;22;20016;-83
2022/05/24 07:48:26;;;;;;;6.55;2.45;;;;;;;14.09;71.20;100242.03;6533861;22;20126;-81
2022/05/24 07:50:57;;;;;;;4.27;1.83;;;;;;;14.20;70.48;100242.50;6533945;22;20012;-84
2022/05/24 07:53:29;;;;;;;6.80;2.27;;;;;;;14.16;68.61;100246.13;6535175;22;20489;-81
2022/05/24 07:56:01;;;;;;;9.43;2.27;;;;;;;13.89;68.86;100247.13;6533516;22;20007;-83
2022/05/24 07:58:32;;;;;;;7.60;2.53;;;;;;;13.85;69.36;100254.25;6531575;22;20030;-83
2022/05/24 08:01:04;;;;;;;6.13;2.63;;;;;;;13.97;70.89;100250.31;6533714;22;20465;-81
2022/05/24 08:03:36;;;;;;;4.83;1.93;;;;;;;13.96;70.33;100254.72;6531761;22;20066;-81
2022/05/24 08:06:08;;;;;;;6.85;2.25;;;;;;;14.41;69.19;100264.44;6534019;22;20189;-83
2022/05/24 08:08:40;;;;;;;5.05;2.28;;;;;;;14.13;68.33;100254.09;6531793;22;20004;-83
2022/05/24 08:11:12;;;;;;;5.87;1.87;;;;;;;14.10;69.05;100276.94;6533476;22;20045;-81
2022/05/24 08:13:43;;;;;;;8.80;2.10;;;;;;;14.33;67.93;100271.75;6533018;22;20095;-82
2022/05/24 08:16:15;;;;;;;7.07;2.73;;;;;;;14.26;68.72;100264.16;6533322;22;20011;-82
2022/05/24 08:18:47;;;;;;;5.28;2.40;;;;;;;14.36;68.69;100262.88;6531130;22;20145;-81
2022/05/24 08:21:18;;;;;;;9.80;3.03;;;;;;;14.60;66.66;100269.00;6533740;22;20027;-82
2022/05/24 08:23:49;;;;;;;6.50;2.87;;;;;;;14.81;65.52;100280.50;6535000;22;20008;-81
2022/05/24 08:26:23;;;;;;;6.50;2.60;;;;;;;14.91;65.88;100273.13;6534649;22;19999;-82
2022/05/24 08:28:54;;;;;;;8.32;3.10;;;;;;;14.55;65.39;100277.06;6537708;22;20004;-81
2022/05/24 08:31:26;;;;;;;7.83;2.90;;;;;;;14.44;65.90;100281.84;6538093;22;20084;-84
2022/05/24 08:33:57;;;;;;;10.87;3.07;;;;;;;14.44;67.18;100294.97;6532437;22;20084;-84
2022/05/24 08:36:28;;;;;;;6.30;2.10;;;;;;;14.74;66.86;100295.59;6530842;22;20014;-83
2022/05/24 08:39:00;;;;;;;6.07;2.27;;;;;;;14.76;65.83;100303.41;6532543;22;20004;-84
2022/05/24 08:41:31;;;;;;;5.57;2.27;;;;;;;14.49;67.03;100303.50;6532537;22;20007;-81
2022/05/24 08:49:57;;;;;;;7.53;2.15;;;;;;;14.27;67.47;100324.38;6532194;22;20150;-81
2022/05/24 08:52:35;;;;;;;7.30;1.97;;;;;;;14.34;68.00;100317.16;6532550;22;20031;-81
2022/05/24 08:55:10;;;;;;;3.97;1.67;;;;;;;14.29;67.37;100327.81;6503531;22;20011;-82
2022/05/24 08:57:42;;;;;;;11.25;2.72;;;;;;;14.21;67.35;100329.84;6532001;22;20019;-83
2022/05/24 09:00:22;;;;;;;6.65;2.10;;;;;;;14.12;68.35;100340.63;6535679;22;20011;-82
2022/05/24 09:02:55;;;;;;;6.00;1.90;;;;;;;14.24;68.56;100329.75;6503722;22;20036;-81
2022/05/24 09:05:26;;;;;;;6.88;2.05;;;;;;;14.03;67.02;100342.66;6532551;22;20008;-81
2022/05/24 09:08:21;;;;;;;3.53;1.60;;;;;;;13.90;67.75;100341.38;6535014;22;20012;-81
2022/05/24 09:11:02;;;;;;;3.78;1.55;;;;;;;14.03;69.28;100345.28;6505407;22;20428;-83
2022/05/24 09:13:47;;;;;;;5.15;1.85;;;;;;;14.18;67.50;100361.41;6533929;22;20054;-83
2022/05/24 09:16:19;;;;;;;2.10;1.63;;;;;;;14.77;65.39;100345.31;6532698;22;20067;-80
2022/05/24 09:18:58;;;;;;;3.20;1.80;;;;;;;15.00;63.81;100361.13;6532719;22;20472;-81
2022/05/24 09:21:31;;;;;;;6.00;2.13;;;;;;;15.09;64.11;100364.25;6531794;22;20004;-80
2022/05/24 09:24:32;;;;;;;4.55;2.15;;;;;;;14.87;63.38;100366.81;6507780;22;19999;-83
2022/05/24 09:27:14;;;;;;;2.80;2.05;;;;;;;14.69;64.14;100368.38;6414751;23;20013;-83
2022/05/24 09:30:08;;;;;;;7.65;2.53;;;;;;;14.67;65.02;100375.44;6389450;23;20013;-81
2022/05/24 09:32:46;;;;;;;5.47;2.80;;;;;;;14.45;63.76;100388.44;6408498;23;20012;-81
2022/05/24 09:35:23;;;;;;;3.97;2.58;;;;;;;14.48;64.49;100387.47;6409561;23;20439;-81
2022/05/24 09:38:04;;;;;;;7.20;3.10;;;;;;;14.46;64.60;100384.91;6410627;23;20009;-79
2022/05/24 09:40:46;;;;;;;3.28;2.20;;;;;;;14.84;63.29;100384.47;6416741;23;20009;-80
2022/05/24 09:43:28;;;;;;;4.65;2.40;;;;;;;15.40;63.13;100385.84;6416142;23;20006;-82
2022/05/24 09:46:08;;;;;;;7.38;2.63;;;;;;;15.38;61.83;100385.06;6417369;23;20036;-78
2022/05/24 09:48:53;;;;;;;4.30;2.47;;;;;;;15.49;61.70;100394.22;6417130;23;20018;-81
2022/05/24 09:51:35;;;;;;;4.00;2.67;;;;;;;15.43;61.31;100407.59;6413445;23;20010;-79
2022/05/24 09:54:16;;;;;;;6.60;3.40;;;;;;;15.37;60.53;100394.69;6410620;23;20119;-82
2022/05/24 09:57:06;;;;;;;6.40;3.15;;;;;;;16.38;58.86;100396.75;6406585;23;20041;-82
2022/05/24 09:59:56;;;;;;;6.75;3.30;;;;;;;17.47;55.15;100398.91;6405687;23;20013;-80
2022/05/24 10:02:32;;;;;;;3.63;2.80;;;;;;;18.22;53.34;100382.03;6421928;22;20021;-81
2022/05/24 10:05:25;;;;;;;6.88;2.80;;;;;;;17.93;52.77;100385.28;6534777;22;20382;-84
2022/05/24 10:08:02;;;;;;;;;;;;;;;18.07;52.26;100390.72;6533150;22;20032;-83
2022/05/24 10:10:37;;;;;;;3.83;3.08;;;;;;;18.07;53.38;100411.81;6532872;22;20332;-83
2022/05/24 10:13:19;;;;;;;5.00;3.38;;;;;;;18.12;52.20;100407.16;6531701;22;20417;-81
2022/05/24 10:16:21;;;;;;;3.67;2.40;;;;;;;17.20;51.02;100404.53;6503811;22;20015;-84
2022/05/24 10:19:47;;;;;;;3.97;3.03;;;;;;;16.79;51.19;100412.47;6533401;22;20014;-80
2022/05/24 10:22:49;;;;;;;3.17;2.47;;;;;;;16.45;53.30;100415.75;6434937;23;20033;-78
2022/05/24 10:25:39;;;;;;;5.32;3.13;;;;;;;16.51;52.58;100408.44;6440257;23;20009;-78
2022/05/24 10:28:18;;;;;;;3.50;2.88;;;;;;;16.92;52.69;100405.81;6424130;23;20195;-83
2022/05/24 10:30:59;;;;;;;6.30;2.67;;;;;;;17.31;51.73;100419.84;6442522;23;20131;-80
2022/05/24 10:40:20;;;;;;;7.15;2.90;;;;;;;17.23;51.64;100417.56;6431870;23;20020;-81
2022/05/24 10:43:23;;;;;;;5.78;3.10;;;;;;;17.17;52.68;100417.00;6431795;23;20017;-82
2022/05/24 10:46:09;;;;;;;3.80;3.20;;;;;;;16.70;52.00;100429.56;6432737;23;20020;-80
2022/05/24 10:48:59;;;;;;;3.83;3.13;;;;;;;16.38;53.35;100434.44;6431229;23;20021;-80
2022/05/24 10:51:47;;;;;;;3.72;3.42;;;;;;;16.08;54.10;100425.19;6432010;23;20013;-82
2022/05/24 10:54:40;;;;;;;6.40;3.60;;;;;;;16.45;54.00;100431.53;6431530;23;20481;-81
2022/05/24 10:57:15;;;;;;;;;;;;;;;17.71;51.24;100430.25;6432471;23;20009;-80
2022/05/24 11:00:15;;;;;;;8.02;3.28;;;;;;;17.12;51.52;100430.38;6505615;22;19920;-83
2022/05/24 11:02:57;;;;;;;8.02;3.88;;;;;;;16.59;53.05;100422.13;6523107;22;20328;-81
2022/05/24 11:05:43;;;;;;;4.90;3.22;;;;;;;16.34;56.09;100429.34;6529732;22;20086;-80
2022/05/24 11:08:26;;;;;;;7.57;2.63;;;;;;;18.57;52.95;100433.91;6528904;22;20007;-80
2022/05/24 11:11:20;;;;;;;4.40;2.50;;;;;;;20.48;46.97;100425.13;6529284;22;20012;-80
2022/05/24 11:13:52;;;;;;;6.47;2.60;;;;;;;21.65;43.56;100428.53;6528835;22;20012;-81
2022/05/24 11:16:36;;;;;;;3.40;2.40;;;;;;;22.34;39.74;100428.44;6501729;22;20007;-79
2022/05/24 11:19:28;;;;;;;3.92;2.45;;;;;;;22.51;42.38;100414.03;6529093;22;20026;-81
2022/05/24 11:22:21;;;;;;;2.85;2.22;;;;;;;23.32;39.36;100426.06;6529545;22;20035;-80
2022/05/24 11:25:40;;;;;;;6.88;2.42;;;;;;;24.24;36.49;100430.91;6530254;22;20338;-82
2022/05/24 11:28:20;;;;;;;7.45;2.60;;;;;;;24.45;39.78;100428.41;6400122;23;20017;-81
2022/05/24 11:30:53;;;;;;;5.85;3.38;;;;;;;23.18;35.27;100445.66;6399767;23;20013;-80
2022/05/24 11:33:38;;;;;;;4.70;2.67;;;;;;;22.21;37.52;100444.31;6399315;23;20013;-79
2022/05/24 11:36:29;;;;;;;4.20;2.33;;;;;;;20.69;41.64;100441.59;6399666;23;20012;-81
2022/05/24 11:39:14;;;;;;;2.42;1.92;;;;;;;20.40;43.25;100446.78;6400391;23;20363;-81
2022/05/24 11:41:45;;;;;;;5.30;2.20;;;;;;;20.67;42.40;100446.09;6399901;23;20087;-79
2022/05/24 11:44:35;;;;;;;3.72;2.15;;;;;;;22.05;40.36;100439.19;6399486;23;20080;-79
2022/05/24 11:47:07;;;;;;;3.85;2.10;;;;;;;23.60;36.27;100448.88;6399940;23;20654;-79
2022/05/24 11:49:59;;;;;;;5.10;2.73;;;;;;;24.52;34.76;100456.25;6399227;23;20066;-80
2022/05/24 11:52:39;;;;;;;3.53;2.22;;;;;;;23.47;35.20;100472.84;6400348;23;20387;-81
2022/05/24 11:55:39;;;;;;;3.95;2.78;;;;;;;22.74;37.12;100454.94;6400047;23;20360;-82
2022/05/24 11:58:19;;;;;;;3.03;1.90;;;;;;;22.50;38.19;100455.66;6400026;23;20014;-81
2022/05/24 12:01:02;;;;;;;5.05;2.33;;;;;;;21.44;39.40;100470.50;6399877;23;20359;-80
2022/05/24 12:09:23;;;;;;;4.25;2.50;;;;;;;18.38;45.00;100466.50;6531125;22;20008;-81
2022/05/24 12:12:21;;;;;;;4.90;2.35;;;;;;;18.08;46.20;100462.78;6500598;22;20412;-81
2022/05/24 12:15:09;;;;;;;3.33;2.20;;;;;;;16.75;52.94;100501.25;6528219;22;20090;-80
2022/05/24 12:17:41;;;;;;;5.15;2.60;;;;;;;15.42;62.64;100510.06;6528910;22;20413;-78
2022/05/24 12:20:31;;;;;;;;;;;;;;;15.10;63.03;100518.25;6529019;22;20740;-83
2022/05/24 12:23:32;;;;;;;3.15;2.45;;;;;;;13.95;71.55;100522.88;6528339;22;20314;-82
2022/05/24 12:26:12;;;;;;;5.97;2.83;;;;;;;13.90;71.36;100519.56;6528306;22;20026;-81
2022/05/24 12:28:50;;;;;;;5.03;2.10;;;;;;;14.32;72.40;100520.88;6528815;22;20004;-82
2022/05/24 12:31:25;;;;;;;3.10;2.22;;;;;;;14.53;68.66;100525.41;6532911;22;20060;-79
2022/05/24 12:34:00;;;;;;;5.57;1.90;;;;;;;14.34;66.92;100514.66;6527783;22;20086;-80
2022/05/24 12:36:38;;;;;;;4.72;1.80;;;;;;;14.52;68.66;100526.31;6527631;22;20008;-80
2022/05/24 12:39:16;;;;;;;5.60;1.60;;;;;;;14.62;68.14;100539.16;6528388;22;20012;-81
2022/05/24 12:41:52;;;;;;;4.45;1.70;;;;;;;14.65;70.12;100544.28;6527743;22;20008;-80
2022/05/24 12:44:30;;;;;;;5.43;1.50;;;;;;;14.64;68.80;100540.81;6528014;22;20430;-78
2022/05/24 12:47:04;;;;;;;4.30;1.70;;;;;;;14.93;68.65;100541.59;6527600;22;20003;-81
2022/05/24 12:49:52;;;;;;;4.22;1.98;;;;;;;16.46;65.07;100535.88;6527392;22;20053;-81
2022/05/24 12:52:37;;;;;;;3.22;1.85;;;;;;;17.91;60.49;100545.34;6528915;22;20382;-80